UAE471 OMDB-OIIE
Flight info
| Callsign | UAE471 |
|---|---|
| Flight time | N/A |
| Altitude | 41000 |
| Route | DAVMO M318 GABKO M317 RADEB M318 ASMUK/N0488F400 W32 ROVAD/N0448F280 G208 RADAL |
| Aircraft | A359/H-SDE2E3GHIJ3J4J5LM1ORWXY/LB1D1 |
Departure
| Time | 2026-04-26 20:51 |
|---|---|
| Airport | Dubai International Airport (OMDB) |
Arrival
| Time | N/A |
|---|---|
| Airport | Imam Khomeini International Airport (OIIE) |
| Time | Latitude | Longitude | Altitude | Speed | Heading |
|---|---|---|---|---|---|
| 2026-04-26 19:45 | 25.24564 | 55.36962 | 28 ft | 0 kts | 166° |
| 2026-04-26 20:31 | 25.24565 | 55.36962 | 34 ft | 2 kts | 166° |
| 2026-04-26 20:32 | 25.24582 | 55.36954 | 32 ft | 3 kts | 150° |
| 2026-04-26 20:32 | 25.24595 | 55.36941 | 32 ft | 3 kts | 126° |
| 2026-04-26 20:32 | 25.24604 | 55.36925 | 30 ft | 3 kts | 106° |
| 2026-04-26 20:32 | 25.24607 | 55.36905 | 32 ft | 3 kts | 91° |
| 2026-04-26 20:33 | 25.24606 | 55.36884 | 32 ft | 3 kts | 79° |
| 2026-04-26 20:33 | 25.24602 | 55.36865 | 29 ft | 2 kts | 68° |
| 2026-04-26 20:33 | 25.24596 | 55.36852 | 31 ft | 2 kts | 59° |
| 2026-04-26 20:33 | 25.24592 | 55.36843 | 30 ft | 1 kts | 51° |
| 2026-04-26 20:34 | 25.24586 | 55.36836 | 28 ft | 1 kts | 41° |
| 2026-04-26 20:34 | 25.24583 | 55.36833 | 28 ft | 0 kts | 35° |
| 2026-04-26 20:39 | 25.24585 | 55.36834 | 31 ft | 2 kts | 34° |
| 2026-04-26 20:39 | 25.24627 | 55.36864 | 31 ft | 10 kts | 32° |
| 2026-04-26 20:39 | 25.24688 | 55.36913 | 32 ft | 11 kts | 59° |
| 2026-04-26 20:39 | 25.24676 | 55.36993 | 33 ft | 13 kts | 117° |
| 2026-04-26 20:40 | 25.24618 | 55.37099 | 35 ft | 18 kts | 122° |
| 2026-04-26 20:40 | 25.24551 | 55.37217 | 38 ft | 19 kts | 122° |
| 2026-04-26 20:40 | 25.24478 | 55.37350 | 41 ft | 21 kts | 121° |
| 2026-04-26 20:40 | 25.24434 | 55.37501 | 44 ft | 21 kts | 90° |
| 2026-04-26 20:41 | 25.24409 | 55.37660 | 46 ft | 21 kts | 118° |
| 2026-04-26 20:41 | 25.24330 | 55.37803 | 49 ft | 22 kts | 121° |
| 2026-04-26 20:41 | 25.24249 | 55.37949 | 52 ft | 23 kts | 121° |
| 2026-04-26 20:41 | 25.24166 | 55.38097 | 49 ft | 23 kts | 121° |
| 2026-04-26 20:42 | 25.24083 | 55.38247 | 55 ft | 23 kts | 121° |
| 2026-04-26 20:42 | 25.23999 | 55.38398 | 55 ft | 23 kts | 121° |
| 2026-04-26 20:42 | 25.23915 | 55.38550 | 62 ft | 23 kts | 121° |
| 2026-04-26 20:42 | 25.23829 | 55.38705 | 64 ft | 24 kts | 122° |
| 2026-04-26 20:43 | 25.23740 | 55.38866 | 64 ft | 25 kts | 121° |
| 2026-04-26 20:43 | 25.23647 | 55.39034 | 67 ft | 27 kts | 121° |
| 2026-04-26 20:43 | 25.23547 | 55.39214 | 65 ft | 28 kts | 121° |
| 2026-04-26 20:43 | 25.23445 | 55.39399 | 66 ft | 19 kts | 121° |
| 2026-04-26 20:44 | 25.23425 | 55.39434 | 66 ft | 6 kts | 120° |
| 2026-04-26 20:44 | 25.23421 | 55.39498 | 66 ft | 9 kts | 63° |
| 2026-04-26 20:44 | 25.23458 | 55.39532 | 65 ft | 0 kts | 32° |
| 2026-04-26 20:45 | 25.23417 | 55.39508 | 67 ft | 0 kts | 27° |
| 2026-04-26 20:45 | 25.23417 | 55.39509 | 66 ft | 0 kts | 32° |
| 2026-04-26 20:49 | 25.23466 | 55.39542 | 63 ft | 15 kts | 31° |
| 2026-04-26 20:49 | 25.23549 | 55.39557 | 68 ft | 12 kts | 330° |
| 2026-04-26 20:50 | 25.23594 | 55.39493 | 66 ft | 7 kts | 300° |
| 2026-04-26 20:50 | 25.23624 | 55.39436 | 64 ft | 10 kts | 300° |
| 2026-04-26 20:50 | 25.23680 | 55.39330 | 69 ft | 38 kts | 300° |
| 2026-04-26 20:50 | 25.23962 | 55.38828 | 63 ft | 113 kts | 301° |
| 2026-04-26 20:51 | 25.24493 | 55.37876 | 48 ft | 176 kts | 300° |
| 2026-04-26 20:51 | 25.25204 | 55.36627 | 491 ft | 197 kts | 303° |
| 2026-04-26 20:51 | 25.25949 | 55.35362 | 1379 ft | 198 kts | 302° |
| 2026-04-26 20:51 | 25.26710 | 55.34079 | 2230 ft | 198 kts | 302° |
| 2026-04-26 20:52 | 25.27460 | 55.32829 | 3016 ft | 194 kts | 302° |
| 2026-04-26 20:52 | 25.28220 | 55.31581 | 3649 ft | 200 kts | 304° |
| 2026-04-26 20:52 | 25.29110 | 55.30354 | 4155 ft | 211 kts | 315° |
| 2026-04-26 20:52 | 25.30431 | 55.29554 | 4764 ft | 225 kts | 344° |
| 2026-04-26 20:53 | 25.32007 | 55.29437 | 5551 ft | 231 kts | 357° |
| 2026-04-26 20:53 | 25.33626 | 55.29502 | 6323 ft | 235 kts | 358° |
| 2026-04-26 20:53 | 25.35277 | 55.29571 | 7061 ft | 239 kts | 358° |
| 2026-04-26 20:53 | 25.36950 | 55.29632 | 7845 ft | 243 kts | 357° |
| 2026-04-26 20:54 | 25.38655 | 55.29682 | 8660 ft | 247 kts | 357° |
| 2026-04-26 20:54 | 25.40377 | 55.29982 | 9486 ft | 258 kts | 13° |
| 2026-04-26 20:54 | 25.42133 | 55.30705 | 9951 ft | 281 kts | 19° |
| 2026-04-26 20:54 | 25.43997 | 55.31589 | 10370 ft | 302 kts | 19° |
| 2026-04-26 20:55 | 25.45997 | 55.32541 | 10727 ft | 323 kts | 19° |
| 2026-04-26 20:55 | 25.48132 | 55.33552 | 11102 ft | 341 kts | 20° |
| 2026-04-26 20:55 | 25.50247 | 55.34553 | 11425 ft | 318 kts | 20° |
| 2026-04-26 20:55 | 25.52171 | 55.35479 | 11662 ft | 293 kts | 19° |
| 2026-04-26 20:56 | 25.52465 | 55.35621 | 11683 ft | 290 kts | 19° |